This is the latest recevied weather packets stored in our database for station/object DN9EM-1. If no packets are shown the sender has not sent any weather packets the latest 10 day(s).
| Time | Temp. | Humidity | Pressure | Rain* | Wind** | Luminosity | Snow |
|---|---|---|---|---|---|---|---|
| 1777626960 | 22.22° C | 40% | 1031.2 hPa | 0 mm | - | - | - |
| 1777626357 | 21.67° C | 41% | 1031.3 hPa | 0 mm | - | - | - |
| 1777625749 | 21.67° C | 41% | 1031.3 hPa | 0 mm | - | - | - |
| 1777625146 | 21.67° C | 41% | 1031.3 hPa | 0 mm | - | - | - |
| 1777624543 | 21.67° C | 41% | 1031.4 hPa | 0 mm | - | - | - |
| 1777623936 | 21.11° C | 43% | 1031.5 hPa | 0 mm | - | - | - |
| 1777623333 | 20.56° C | 44% | 1031.5 hPa | 0 mm | - | - | - |
| 1777622724 | 20° C | 46% | 1031.6 hPa | 0 mm | - | - | - |
| 1777622122 | 20.56° C | 45% | 1031.6 hPa | 0 mm | - | - | - |
| 1777621519 | 19.44° C | 47% | 1031.6 hPa | 0 mm | - | - | - |
| 1777620972 | 18.89° C | 51% | 1031.6 hPa | 0 mm | - | - | - |
| 1777620369 | 18.89° C | 51% | 1031.7 hPa | 0 mm | - | - | - |
| 1777619761 | 17.78° C | 53% | 1031.7 hPa | 0 mm | - | - | - |
| 1777619158 | 17.78° C | 52% | 1031.7 hPa | 0 mm | - | - | - |
| 1777618555 | 16.67° C | 52% | 1031.7 hPa | 0 mm | - | - | - |
| 1777617948 | 16.11° C | 54% | 1031.7 hPa | 0 mm | - | - | - |
| 1777617345 | 15.56° C | 56% | 1031.6 hPa | 0 mm | - | - | - |
| 1777616737 | 15° C | 56% | 1031.5 hPa | 0 mm | - | - | - |
| 1777616134 | 13.89° C | 59% | 1031.5 hPa | 0 mm | - | - | - |
| 1777615532 | 13.33° C | 61% | 1031.5 hPa | 0 mm | - | - | - |
| 1777614923 | 12.22° C | 63% | 1031.5 hPa | 0 mm | - | - | - |
| 1777614321 | 11.11° C | 64% | 1031.5 hPa | 0 mm | - | - | - |
| 1777613773 | 10.56° C | 66% | 1031.4 hPa | 0 mm | - | - | - |
| 1777612568 | 11.11° C | 64% | 1031.5 hPa | 0 mm | - | - | - |
| 1777611959 | 11.11° C | 64% | 1031.5 hPa | 0 mm | - | - | - |
* Rain latest hour (hover to see other rain measurements)
** Current wind speed in m/s (hover to see current wind gust speed)